Time;durP1;ratioP1;P1;durP2;ratioP2;P2;SDS_P1;SDS_P2;PMS_P1;PMS_P2;Temp;Humidity;BMP_temperature;BMP_pressure;BME280_temperature;BME280_humidity;BME280_pressure;Samples;Min_cycle;Max_cycle;Signal;HPM_P1;HPM_P2
2023/07/10 00:01:22;;;;;;;0.00;0.00;;;;;;;21.52;100.00;102045.97;5049827;28;20044;-88
2023/07/10 00:03:48;;;;;;;0.00;0.00;;;;;;;21.30;100.00;102048.09;5043826;28;20083;-86
2023/07/10 00:06:15;;;;;;;0.00;0.00;;;;;;;21.30;100.00;102059.03;5041980;28;20406;-87
2023/07/10 00:08:41;;;;;;;0.00;0.00;;;;;;;21.67;100.00;102051.50;5041317;28;20029;-89
2023/07/10 00:11:39;;;;;;;0.00;0.00;;;;;;;21.94;100.00;102042.25;5024143;28;20041;-87
2023/07/10 00:14:08;;;;;;;0.00;0.00;;;;;;;21.88;100.00;102037.91;4957170;29;20043;-88
2023/07/10 00:16:34;;;;;;;0.00;0.00;;;;;;;21.90;100.00;102038.41;4961489;29;20127;-87
2023/07/10 00:19:00;;;;;;;0.00;0.00;;;;;;;21.59;100.00;102040.25;4960735;28;20091;-88
2023/07/10 00:21:25;;;;;;;0.00;0.00;;;;;;;21.28;100.00;102041.22;4961515;29;20062;-88
2023/07/10 00:23:50;;;;;;;0.00;0.00;;;;;;;21.39;100.00;102041.00;4961074;29;20036;-90
2023/07/10 00:26:24;;;;;;;0.00;0.00;;;;;;;21.41;100.00;102038.81;4961320;29;20041;-87
2023/07/10 00:28:51;;;;;;;0.00;0.00;;;;;;;21.45;100.00;102039.94;4944286;29;20122;-88
2023/07/10 00:31:17;;;;;;;0.00;0.00;;;;;;;21.42;100.00;102048.69;4960487;29;20229;-87
2023/07/10 00:33:47;;;;;;;0.00;0.00;;;;;;;21.67;100.00;102045.19;4960038;29;20035;-89
2023/07/10 00:36:28;;;;;;;0.00;0.00;;;;;;;21.51;100.00;102035.28;4960650;29;20050;-86
2023/07/10 00:38:53;;;;;;;0.00;0.00;;;;;;;21.27;100.00;102034.09;4960802;29;20503;-88
2023/07/10 00:41:22;;;;;;;0.00;0.00;;;;;;;21.42;100.00;102037.75;4960923;28;20148;-90
2023/07/10 00:43:52;;;;;;;0.00;0.00;;;;;;;21.41;100.00;102046.19;4958773;28;20319;-88
2023/07/10 00:46:53;;;;;;;0.00;0.00;;;;;;;21.32;100.00;102054.13;4968540;28;20035;-88
2023/07/10 00:49:34;;;;;;;0.00;0.00;;;;;;;21.40;100.00;102041.84;5005299;28;20113;-87
2023/07/10 00:52:05;;;;;;;;;;;;;;;21.39;100.00;102042.91;5035668;28;20116;-89
2023/07/10 00:54:34;;;;;;;0.00;0.00;;;;;;;21.18;100.00;102043.91;5053807;28;19928;-89
2023/07/10 00:57:03;;;;;;;0.00;0.00;;;;;;;21.36;100.00;102054.41;5024150;28;20025;-89
2023/07/10 00:59:29;;;;;;;0.05;0.05;;;;;;;21.39;100.00;102062.06;5027159;28;20052;-87
2023/07/10 01:02:06;;;;;;;0.00;0.00;;;;;;;21.59;100.00;102060.22;5033432;28;20061;-87
2023/07/10 01:04:32;;;;;;;0.00;0.00;;;;;;;21.46;100.00;102052.50;5023854;28;20048;-89
2023/07/10 01:06:57;;;;;;;0.00;0.00;;;;;;;21.38;100.00;102044.00;5039520;28;20034;-89
2023/07/10 01:09:24;;;;;;;0.00;0.00;;;;;;;21.18;100.00;102044.75;5042079;28;20049;-89
2023/07/10 01:11:49;;;;;;;0.00;0.00;;;;;;;21.43;100.00;102053.06;5047914;28;20041;-89
2023/07/10 01:14:16;;;;;;;0.00;0.00;;;;;;;21.65;100.00;102050.94;5051367;28;20071;-88
2023/07/10 01:16:42;;;;;;;0.00;0.00;;;;;;;21.44;100.00;102045.69;5048949;28;20029;-89
2023/07/10 01:19:18;;;;;;;0.00;0.00;;;;;;;21.65;100.00;102048.22;5062120;28;20041;-89
2023/07/10 01:21:44;;;;;;;0.03;0.03;;;;;;;21.30;100.00;102050.81;5040261;28;20029;-90
2023/07/10 01:24:09;;;;;;;0.00;0.00;;;;;;;21.62;100.00;102051.47;5055074;28;20105;-88
2023/07/10 01:26:38;;;;;;;0.00;0.00;;;;;;;21.51;100.00;102059.91;5064302;28;20044;-89
2023/07/10 01:29:28;;;;;;;0.00;0.00;;;;;;;21.67;100.00;102058.88;5045651;28;20085;-89
2023/07/10 01:31:55;;;;;;;0.00;0.00;;;;;;;21.50;100.00;102061.00;5033719;28;20028;-89
2023/07/10 01:34:49;;;;;;;0.00;0.00;;;;;;;21.24;100.00;102062.81;5045539;28;20036;-89
2023/07/10 01:37:14;;;;;;;0.00;0.00;;;;;;;21.32;100.00;102061.47;5046705;28;20034;-89
2023/07/10 01:39:44;;;;;;;0.00;0.00;;;;;;;21.45;100.00;102058.25;5064060;28;20033;-90
2023/07/10 01:42:09;;;;;;;0.00;0.00;;;;;;;21.51;100.00;102048.97;5034893;28;20136;-89
2023/07/10 01:44:38;;;;;;;0.00;0.00;;;;;;;21.47;100.00;102061.53;5056839;28;20139;-88
2023/07/10 01:47:07;;;;;;;0.10;0.10;;;;;;;21.39;100.00;102054.69;5045793;28;20053;-89
2023/07/10 01:49:37;;;;;;;0.00;0.00;;;;;;;21.57;100.00;102040.53;5051992;28;20021;-89
2023/07/10 01:52:06;;;;;;;0.00;0.00;;;;;;;21.80;100.00;102037.31;5053190;28;20102;-90
2023/07/10 01:54:31;;;;;;;0.00;0.00;;;;;;;21.58;100.00;102042.16;5042168;28;20034;-89
2023/07/10 01:56:57;;;;;;;0.00;0.00;;;;;;;21.49;100.00;102046.50;5026136;28;20042;-90
2023/07/10 01:59:22;;;;;;;0.00;0.00;;;;;;;21.70;100.00;102050.94;5043995;28;20029;-89
2023/07/10 02:01:48;;;;;;;0.00;0.00;;;;;;;21.74;100.00;102049.31;5057431;28;20030;-89
2023/07/10 02:04:14;;;;;;;0.00;0.00;;;;;;;21.81;100.00;102049.94;5054294;28;20043;-90
2023/07/10 02:06:42;;;;;;;0.00;0.00;;;;;;;21.72;100.00;102053.41;5047263;28;20033;-89
2023/07/10 02:09:08;;;;;;;0.00;0.00;;;;;;;21.72;100.00;102046.03;5043093;28;20190;-90
2023/07/10 02:11:34;;;;;;;0.00;0.00;;;;;;;21.69;100.00;102043.00;5038376;28;20021;-88
2023/07/10 02:14:02;;;;;;;0.00;0.00;;;;;;;21.19;100.00;102040.91;5044085;28;20086;-86
2023/07/10 02:16:27;;;;;;;0.03;0.03;;;;;;;21.30;100.00;102030.84;5049970;28;20482;-88
2023/07/10 02:18:53;;;;;;;0.00;0.00;;;;;;;20.91;100.00;102044.81;5056829;28;20041;-86
2023/07/10 02:21:18;;;;;;;0.00;0.00;;;;;;;21.31;100.00;102049.72;5025097;28;20059;-88
2023/07/10 02:23:47;;;;;;;0.00;0.00;;;;;;;21.31;100.00;102052.44;5032772;28;20044;-89
2023/07/10 02:26:13;;;;;;;0.00;0.00;;;;;;;21.33;100.00;102044.81;5044239;28;20047;-88
2023/07/10 02:28:39;;;;;;;0.00;0.00;;;;;;;21.28;100.00;102036.59;5047118;28;20064;-89
2023/07/10 02:31:05;;;;;;;0.10;0.10;;;;;;;21.43;100.00;102046.75;5027754;28;20041;-90
2023/07/10 02:33:49;;;;;;;0.00;0.00;;;;;;;21.51;100.00;102054.44;5029980;28;20112;-90
2023/07/10 02:36:15;;;;;;;0.00;0.00;;;;;;;21.56;100.00;102060.75;5048456;28;20120;-91
2023/07/10 02:38:41;;;;;;;0.00;0.00;;;;;;;21.58;100.00;102063.25;5056856;28;20048;-91
2023/07/10 02:41:06;;;;;;;0.00;0.00;;;;;;;21.41;100.00;102063.44;5027609;28;20155;-90
2023/07/10 02:43:32;;;;;;;0.00;0.00;;;;;;;21.49;100.00;102064.81;5056576;28;20490;-90
2023/07/10 02:45:57;;;;;;;0.00;0.00;;;;;;;21.45;100.00;102058.25;5043831;28;20035;-89
2023/07/10 02:48:22;;;;;;;0.00;0.00;;;;;;;21.44;100.00;102049.25;5062122;28;20037;-90
2023/07/10 02:50:48;;;;;;;0.05;0.05;;;;;;;21.48;100.00;102041.31;5062396;28;20060;-89
2023/07/10 02:53:13;;;;;;;0.00;0.00;;;;;;;21.49;100.00;102054.72;5061213;28;20037;-90
2023/07/10 02:55:39;;;;;;;0.00;0.00;;;;;;;21.24;100.00;102067.47;5060305;28;20017;-89
2023/07/10 02:58:07;;;;;;;0.00;0.00;;;;;;;21.43;100.00;102072.19;5059874;28;20040;-89
2023/07/10 03:00:33;;;;;;;0.00;0.00;;;;;;;21.12;100.00;102073.16;5041420;28;20040;-89
2023/07/10 03:02:58;;;;;;;0.00;0.00;;;;;;;21.07;100.00;102077.78;5060217;28;20071;-89
2023/07/10 03:05:25;;;;;;;0.00;0.00;;;;;;;21.43;100.00;102082.31;5041010;28;20033;-88
2023/07/10 03:07:50;;;;;;;0.00;0.00;;;;;;;21.27;99.83;102078.69;5041702;28;20055;-90
2023/07/10 03:10:17;;;;;;;0.08;0.08;;;;;;;21.12;98.81;102073.16;5060012;28;20027;-88
2023/07/10 03:12:42;;;;;;;0.10;0.10;;;;;;;21.41;97.97;102071.63;5042541;28;20037;-89
2023/07/10 03:15:09;;;;;;;0.00;0.00;;;;;;;21.52;97.32;102061.56;5040197;28;20040;-89
2023/07/10 03:17:34;;;;;;;0.00;0.00;;;;;;;21.49;97.65;102071.13;5058661;28;20549;-89
2023/07/10 03:20:00;;;;;;;0.00;0.00;;;;;;;21.60;97.07;102075.53;5040996;28;20017;-88
2023/07/10 03:22:25;;;;;;;0.00;0.00;;;;;;;21.43;97.28;102071.38;5041912;28;20162;-89
2023/07/10 03:24:55;;;;;;;0.03;0.03;;;;;;;21.40;97.90;102074.66;5058983;28;20075;-88
2023/07/10 03:27:21;;;;;;;0.00;0.00;;;;;;;21.24;98.83;102081.97;5041886;28;20641;-88
2023/07/10 03:29:47;;;;;;;0.00;0.00;;;;;;;21.36;98.44;102079.84;5059439;28;20052;-90
2023/07/10 03:32:12;;;;;;;0.10;0.10;;;;;;;21.45;97.60;102080.13;5041273;28;20298;-89
2023/07/10 03:34:38;;;;;;;0.00;0.00;;;;;;;21.45;97.03;102077.41;5046154;28;20056;-88
2023/07/10 03:37:03;;;;;;;0.00;0.00;;;;;;;21.41;97.47;102074.38;5042573;28;20041;-89
2023/07/10 03:39:29;;;;;;;0.05;0.05;;;;;;;21.43;97.57;102079.56;5063704;28;20060;-90
2023/07/10 03:41:55;;;;;;;0.00;0.00;;;;;;;21.54;97.38;102089.47;5064167;28;20094;-87
2023/07/10 03:44:20;;;;;;;0.00;0.00;;;;;;;21.53;97.40;102096.03;5042881;28;20037;-87
2023/07/10 03:46:46;;;;;;;0.00;0.00;;;;;;;21.56;96.62;102095.50;5065066;28;20021;-87
2023/07/10 03:53:04;;;;;;;0.00;0.00;;;;;;;22.03;95.05;102096.25;5064567;28;20167;-88
2023/07/10 03:55:30;;;;;;;0.00;0.00;;;;;;;21.55;96.54;102097.41;5063397;28;20041;-87
2023/07/10 03:57:55;;;;;;;0.00;0.00;;;;;;;21.64;95.34;102105.94;5062756;28;20451;-88
2023/07/10 04:00:21;;;;;;;0.00;0.00;;;;;;;21.66;96.11;102101.03;5062614;28;20037;-89
2023/07/10 04:02:46;;;;;;;0.00;0.00;;;;;;;21.89;95.32;102097.84;5028451;28;20036;-89
2023/07/10 04:05:11;;;;;;;0.03;0.03;;;;;;;21.68;96.66;102109.75;5042241;28;20037;-90
2023/07/10 04:07:37;;;;;;;0.00;0.00;;;;;;;21.68;96.14;102107.84;5033254;28;20037;-91
2023/07/10 04:10:04;;;;;;;0.00;0.00;;;;;;;21.80;95.58;102110.34;5062291;28;20047;-90
2023/07/10 04:12:29;;;;;;;0.00;0.00;;;;;;;22.12;94.07;102104.72;5044447;28;20044;-89
2023/07/10 04:14:55;;;;;;;0.00;0.00;;;;;;;22.41;92.09;102103.94;5042820;28;20044;-89
2023/07/10 04:17:20;;;;;;;0.00;0.00;;;;;;;22.35;90.63;102113.25;5060209;28;20041;-89
2023/07/10 04:19:45;;;;;;;0.00;0.00;;;;;;;21.71;92.47;102121.00;5061826;28;20032;-88
2023/07/10 04:22:11;;;;;;;0.00;0.00;;;;;;;22.33;90.50;102114.59;5061851;28;20029;-90
2023/07/10 04:24:36;;;;;;;0.00;0.00;;;;;;;21.63;92.95;102121.53;5044156;28;20044;-90
2023/07/10 04:27:02;;;;;;;0.00;0.00;;;;;;;21.72;93.21;102119.91;5062129;28;20116;-90
2023/07/10 04:29:27;;;;;;;0.00;0.00;;;;;;;21.88;91.72;102117.28;5044053;28;20033;-91
2023/07/10 04:31:53;;;;;;;0.00;0.00;;;;;;;21.91;92.42;102108.50;5062364;28;20027;-86
2023/07/10 04:34:55;;;;;;;0.00;0.00;;;;;;;22.01;92.08;102112.09;5043724;28;20028;-89
2023/07/10 04:37:21;;;;;;;0.00;0.00;;;;;;;21.69;92.47;102125.09;5061640;28;20254;-90
2023/07/10 04:39:46;;;;;;;0.00;0.00;;;;;;;21.31;94.01;102126.28;5062106;28;20118;-89
2023/07/10 04:42:11;;;;;;;0.00;0.00;;;;;;;21.36;93.08;102130.97;5041516;28;20029;-90
2023/07/10 04:44:37;;;;;;;0.00;0.00;;;;;;;21.23;93.87;102123.25;5042901;28;20050;-92
2023/07/10 04:47:02;;;;;;;0.00;0.00;;;;;;;21.50;93.91;102124.72;5021987;28;20029;-86
2023/07/10 04:49:28;;;;;;;0.00;0.00;;;;;;;21.50;94.00;102129.41;5002683;28;20037;-90
2023/07/10 04:51:53;;;;;;;0.00;0.00;;;;;;;21.63;93.47;102131.63;5036266;28;20029;-90
2023/07/10 04:54:18;;;;;;;0.10;0.10;;;;;;;21.49;93.53;102144.16;5041730;28;20033;-89
2023/07/10 04:56:44;;;;;;;0.10;0.10;;;;;;;21.92;92.10;102132.03;5041114;28;20060;-88
2023/07/10 04:59:09;;;;;;;0.00;0.00;;;;;;;21.80;92.68;102143.19;5021790;28;20036;-87
2023/07/10 05:01:35;;;;;;;0.05;0.05;;;;;;;21.53;93.03;102139.78;5034842;28;20032;-88
2023/07/10 05:04:01;;;;;;;0.00;0.00;;;;;;;21.78;92.91;102140.72;5002600;28;20062;-87
2023/07/10 05:06:28;;;;;;;0.00;0.00;;;;;;;21.31;94.13;102129.03;5020831;28;20057;-87
2023/07/10 05:08:55;;;;;;;0.00;0.00;;;;;;;21.42;93.35;102138.94;5018037;28;20415;-87
2023/07/10 05:11:28;;;;;;;0.00;0.00;;;;;;;21.55;92.82;102127.50;5002505;28;20458;-88
2023/07/10 05:13:54;;;;;;;0.00;0.00;;;;;;;21.70;92.71;102146.72;5028485;28;20028;-87
2023/07/10 05:16:20;;;;;;;0.00;0.00;;;;;;;21.47;92.36;102141.69;5040098;28;20033;-87
2023/07/10 05:18:45;;;;;;;0.10;0.10;;;;;;;21.64;92.03;102144.25;5025151;28;20406;-87
2023/07/10 05:21:11;;;;;;;0.00;0.00;;;;;;;22.04;89.81;102140.84;5025115;28;20106;-88
2023/07/10 05:23:36;;;;;;;0.00;0.00;;;;;;;22.06;88.73;102133.19;5022600;28;20250;-89
2023/07/10 05:26:10;;;;;;;0.00;0.00;;;;;;;22.05;89.35;102129.63;5024669;28;20021;-88
2023/07/10 05:28:37;;;;;;;0.00;0.00;;;;;;;22.19;88.71;102130.75;5036303;28;20101;-89
2023/07/10 05:31:04;;;;;;;0.00;0.00;;;;;;;22.03;87.94;102140.03;5039757;28;20030;-90
2023/07/10 05:33:30;;;;;;;0.00;0.00;;;;;;;21.96;89.24;102133.16;5021492;28;20137;-89
2023/07/10 05:35:58;;;;;;;0.00;0.00;;;;;;;21.93;89.45;102134.53;5021175;28;20038;-88
2023/07/10 05:38:26;;;;;;;0.00;0.00;;;;;;;21.86;88.64;102141.34;5014540;28;20477;-85
2023/07/10 05:40:52;;;;;;;0.00;0.00;;;;;;;22.26;87.87;102135.97;5030345;28;20108;-87
2023/07/10 05:43:17;;;;;;;0.00;0.00;;;;;;;22.25;87.77;102137.88;5036487;28;20450;-87
2023/07/10 05:45:43;;;;;;;0.00;0.00;;;;;;;22.27;87.77;102141.16;5018996;28;20033;-87
2023/07/10 05:48:09;;;;;;;0.00;0.00;;;;;;;22.35;87.10;102140.63;5034525;28;20092;-87
2023/07/10 05:53:56;;;;;;;0.00;0.00;;;;;;;22.32;88.79;102148.56;5060052;28;20032;-86
2023/07/10 05:56:23;;;;;;;0.00;0.00;;;;;;;22.31;87.82;102142.28;5060003;28;20058;-86
2023/07/10 05:58:50;;;;;;;0.00;0.00;;;;;;;22.18;86.97;102145.53;5059035;28;20040;-87
2023/07/10 06:01:15;;;;;;;0.00;0.00;;;;;;;22.24;87.45;102140.91;5058820;28;20037;-86
2023/07/10 06:03:41;;;;;;;0.00;0.00;;;;;;;22.34;86.51;102147.22;5054689;28;20040;-86
2023/07/10 06:06:07;;;;;;;0.00;0.00;;;;;;;22.23;87.56;102145.53;5060834;28;20523;-87
2023/07/10 06:08:33;;;;;;;0.00;0.00;;;;;;;22.26;88.69;102153.22;5080451;28;20036;-89
2023/07/10 06:10:59;;;;;;;0.00;0.00;;;;;;;22.40;88.03;102146.13;5063911;28;20039;-88
2023/07/10 06:13:25;;;;;;;0.00;0.00;;;;;;;22.35;88.09;102156.25;5077623;28;20076;-89
2023/07/10 06:15:53;;;;;;;0.00;0.00;;;;;;;21.97;88.81;102152.06;5043300;28;20120;-87
2023/07/10 06:18:20;;;;;;;0.00;0.00;;;;;;;21.83;89.81;102154.47;5043261;28;20042;-87
2023/07/10 06:24:10;;;;;;;0.00;0.00;;;;;;;21.77;87.96;102166.47;5059983;28;20063;-86
2023/07/10 06:26:35;;;;;;;0.00;0.00;;;;;;;21.58;88.52;102157.06;5061362;28;20399;-86
2023/07/10 06:29:01;;;;;;;0.00;0.00;;;;;;;21.96;87.16;102161.34;5039591;28;20009;-87
2023/07/10 06:31:27;;;;;;;0.00;0.00;;;;;;;21.87;86.42;102164.88;5023463;28;20026;-87
2023/07/10 06:33:52;;;;;;;0.00;0.00;;;;;;;22.06;87.71;102155.09;5021096;28;20041;-87
2023/07/10 06:36:18;;;;;;;0.00;0.00;;;;;;;21.97;88.26;102163.00;5022861;28;20045;-86
2023/07/10 06:38:43;;;;;;;0.00;0.00;;;;;;;22.01;87.32;102157.81;5037624;28;20037;-88
2023/07/10 06:41:10;;;;;;;0.00;0.00;;;;;;;22.27;87.74;102157.59;5021595;28;20029;-86
2023/07/10 06:43:35;;;;;;;0.03;0.03;;;;;;;;;;5023366;28;20139;-85
2023/07/10 06:46:01;;;;;;;0.00;0.00;;;;;;;22.12;86.31;102163.06;5020921;28;20064;-88
2023/07/10 06:48:26;;;;;;;0.00;0.00;;;;;;;22.30;85.52;102158.97;5014576;28;20034;-85
2023/07/10 06:50:53;;;;;;;0.00;0.00;;;;;;;22.20;86.19;102168.00;5018030;28;20038;-86
2023/07/10 06:53:20;;;;;;;0.00;0.00;;;;;;;21.78;87.02;102162.63;5020082;28;20048;-85
2023/07/10 06:55:58;;;;;;;0.00;0.00;;;;;;;22.19;85.93;102169.09;4996936;28;20074;-87
2023/07/10 06:58:24;;;;;;;0.00;0.00;;;;;;;22.35;85.31;102158.97;5008044;28;20116;-86
2023/07/10 07:00:50;;;;;;;0.00;0.00;;;;;;;22.04;86.03;102162.75;5039387;28;20043;-86
2023/07/10 07:03:15;;;;;;;0.00;0.00;;;;;;;22.60;84.31;102161.81;5039021;28;20049;-86
2023/07/10 07:05:44;;;;;;;0.00;0.00;;;;;;;22.50;86.01;102148.88;5054106;28;20036;-84
2023/07/10 07:08:10;;;;;;;0.00;0.00;;;;;;;22.64;85.41;102158.22;5074730;28;20044;-84
2023/07/10 07:10:40;;;;;;;0.00;0.00;;;;;;;22.46;85.63;102158.75;5070816;28;20028;-85
2023/07/10 07:13:05;;;;;;;0.00;0.00;;;;;;;22.51;85.94;102155.16;5059523;28;20036;-87
2023/07/10 07:15:31;;;;;;;0.10;0.10;;;;;;;22.67;84.57;102154.13;5045866;28;20060;-86
2023/07/10 07:17:56;;;;;;;0.00;0.00;;;;;;;22.98;83.82;102168.63;5040355;28;20034;-86
2023/07/10 07:20:22;;;;;;;0.00;0.00;;;;;;;22.42;85.61;102168.59;5040330;28;20060;-85
2023/07/10 07:22:47;;;;;;;0.00;0.00;;;;;;;22.53;84.80;102166.69;5026419;28;20028;-86
2023/07/10 07:25:13;;;;;;;0.00;0.00;;;;;;;22.54;85.24;102163.66;5022348;28;20048;-87
2023/07/10 07:27:38;;;;;;;0.00;0.00;;;;;;;23.04;83.46;102170.28;5021438;28;20026;-86
2023/07/10 07:30:06;;;;;;;0.00;0.00;;;;;;;22.79;84.10;102168.38;5003277;28;20034;-85
2023/07/10 07:32:31;;;;;;;0.00;0.00;;;;;;;22.98;82.01;102172.19;5036956;28;20108;-84
2023/07/10 07:34:56;;;;;;;0.00;0.00;;;;;;;23.21;81.66;102168.88;5047236;28;20494;-86
2023/07/10 07:40:44;;;;;;;0.00;0.00;;;;;;;23.24;80.95;102178.47;5051402;28;20169;-86
2023/07/10 07:43:09;;;;;;;0.00;0.00;;;;;;;22.86;82.76;102182.63;5033880;28;20510;-87
2023/07/10 07:45:35;;;;;;;0.00;0.00;;;;;;;23.21;81.32;102185.34;5021771;28;20422;-86
2023/07/10 07:48:00;;;;;;;0.00;0.00;;;;;;;22.91;80.23;102188.13;5013913;28;20418;-85
2023/07/10 07:50:25;;;;;;;0.00;0.00;;;;;;;23.00;79.79;102186.47;5040937;28;20042;-85
2023/07/10 07:52:51;;;;;;;0.00;0.00;;;;;;;22.99;79.98;102184.81;5030307;28;20018;-86
2023/07/10 07:55:20;;;;;;;0.00;0.00;;;;;;;23.28;79.86;102193.28;5003993;28;20495;-86
2023/07/10 07:57:45;;;;;;;0.00;0.00;;;;;;;23.69;79.07;102177.56;5023564;28;20041;-86
2023/07/10 08:00:11;;;;;;;0.00;0.00;;;;;;;23.50;77.10;102189.16;5021630;28;20034;-87
2023/07/10 08:02:36;;;;;;;0.00;0.00;;;;;;;23.62;77.83;102188.03;5034025;28;20044;-85
2023/07/10 08:05:02;;;;;;;0.00;0.00;;;;;;;23.85;77.57;102184.63;5021353;28;20021;-85
2023/07/10 08:07:28;;;;;;;0.00;0.00;;;;;;;23.63;78.07;102187.75;5039548;28;20021;-84
2023/07/10 08:09:56;;;;;;;0.00;0.00;;;;;;;23.63;78.54;102189.66;5039230;28;20034;-85
2023/07/10 08:12:21;;;;;;;0.00;0.00;;;;;;;23.38;77.77;102177.66;5039596;28;20061;-85
2023/07/10 08:14:47;;;;;;;0.00;0.00;;;;;;;23.60;78.32;102180.06;5038764;28;20034;-84
2023/07/10 08:17:12;;;;;;;0.00;0.00;;;;;;;23.74;76.58;102183.06;5036467;28;20041;-83
2023/07/10 08:19:38;;;;;;;0.00;0.00;;;;;;;23.87;76.55;102191.50;5018782;28;20049;-83
2023/07/10 08:22:03;;;;;;;0.00;0.00;;;;;;;23.91;76.48;102191.75;5031194;28;20498;-85
2023/07/10 08:24:29;;;;;;;0.00;0.00;;;;;;;23.85;77.21;102170.91;5010756;28;20045;-83
2023/07/10 08:26:55;;;;;;;0.00;0.00;;;;;;;23.78;76.01;102182.22;5035346;28;20036;-82
2023/07/10 08:29:25;;;;;;;0.00;0.00;;;;;;;24.00;76.68;102179.09;5036149;28;20053;-83
2023/07/10 08:31:52;;;;;;;0.00;0.00;;;;;;;24.24;75.40;102180.06;5019259;28;20025;-83
2023/07/10 08:34:17;;;;;;;0.00;0.00;;;;;;;23.73;73.79;102184.97;5019361;28;20029;-84
2023/07/10 08:36:43;;;;;;;0.00;0.00;;;;;;;23.97;73.99;102183.22;5008736;28;20044;-83
2023/07/10 08:39:10;;;;;;;0.00;0.00;;;;;;;24.06;75.03;102186.22;5036918;28;20048;-85
2023/07/10 08:41:35;;;;;;;0.00;0.00;;;;;;;24.41;76.34;102192.34;5017039;28;20037;-84
2023/07/10 08:44:00;;;;;;;0.00;0.00;;;;;;;24.36;73.17;102186.88;5035529;28;20041;-84
2023/07/10 08:46:26;;;;;;;0.00;0.00;;;;;;;25.13;72.57;102190.69;5029184;28;20368;-83
2023/07/10 08:49:16;;;;;;;0.00;0.00;;;;;;;25.05;72.63;102199.56;5009551;28;20057;-85
2023/07/10 08:52:02;;;;;;;0.00;0.00;;;;;;;24.79;71.44;102190.72;5030495;28;20601;-85
2023/07/10 08:54:27;;;;;;;0.00;0.00;;;;;;;24.84;70.72;102190.69;5013184;28;20445;-85
2023/07/10 08:57:19;;;;;;;0.00;0.00;;;;;;;25.07;71.56;102191.84;5035725;28;20120;-83
2023/07/10 08:59:58;;;;;;;0.00;0.00;;;;;;;24.52;71.01;102197.75;5026985;28;20072;-83
2023/07/10 09:02:29;;;;;;;0.00;0.00;;;;;;;24.36;72.04;102197.03;5008283;28;20026;-83
2023/07/10 09:04:55;;;;;;;;;;;;;;;25.64;70.08;102186.34;5030527;28;20021;-83
2023/07/10 09:07:21;;;;;;;0.00;0.00;;;;;;;25.08;71.43;102186.06;5013012;28;19921;-84
2023/07/10 09:09:53;;;;;;;0.00;0.00;;;;;;;25.21;69.47;102190.06;5035369;28;20088;-84
2023/07/10 09:12:32;;;;;;;0.00;0.00;;;;;;;24.97;70.26;102180.94;5016682;28;20095;-84
2023/07/10 09:15:05;;;;;;;0.00;0.00;;;;;;;24.99;70.17;102190.56;5033593;28;20585;-83
2023/07/10 09:17:59;;;;;;;0.00;0.00;;;;;;;25.18;69.63;102185.13;5033917;28;20065;-83
2023/07/10 09:20:25;;;;;;;0.00;0.00;;;;;;;25.08;68.63;102196.25;5035795;28;20105;-84
2023/07/10 09:23:31;;;;;;;0.00;0.00;;;;;;;25.28;70.09;102194.13;5036934;28;20017;-84
2023/07/10 09:26:13;;;;;;;0.00;0.00;;;;;;;25.48;68.61;102195.03;5034120;28;20128;-84
2023/07/10 09:28:39;;;;;;;0.00;0.00;;;;;;;25.35;68.45;102190.22;5034929;28;20478;-84
2023/07/10 09:31:20;;;;;;;0.00;0.00;;;;;;;25.19;68.58;102193.13;5034014;28;20499;-84
2023/07/10 09:33:53;;;;;;;;;;;;;;;25.01;69.70;102187.50;5033515;28;20125;-84
2023/07/10 09:36:20;;;;;;;0.00;0.00;;;;;;;25.56;67.94;102191.66;5034319;28;19913;-85
2023/07/10 09:38:48;;;;;;;0.00;0.00;;;;;;;25.05;67.97;102183.91;5034608;28;20111;-84
2023/07/10 09:41:22;;;;;;;0.00;0.00;;;;;;;25.55;68.79;102177.06;5033751;28;20568;-85
2023/07/10 09:43:58;;;;;;;0.00;0.00;;;;;;;25.73;66.78;102187.31;5034592;28;20061;-83
2023/07/10 09:46:29;;;;;;;0.00;0.00;;;;;;;25.41;67.98;102175.31;5035050;28;20038;-84
2023/07/10 09:48:56;;;;;;;0.00;0.00;;;;;;;25.60;65.99;102187.19;5030079;28;20040;-85
2023/07/10 09:51:22;;;;;;;0.00;0.00;;;;;;;25.51;67.03;102183.47;5017149;28;20048;-85
2023/07/10 09:53:52;;;;;;;0.00;0.00;;;;;;;25.57;66.43;102185.84;5032208;28;20075;-84
2023/07/10 09:56:26;;;;;;;0.00;0.00;;;;;;;25.39;67.12;102192.09;5026136;28;20042;-84
2023/07/10 09:58:54;;;;;;;0.00;0.00;;;;;;;25.68;66.14;102190.13;5030809;28;20105;-84
2023/07/10 10:01:23;;;;;;;0.00;0.00;;;;;;;25.55;64.15;102192.78;5035514;28;20120;-85
2023/07/10 10:03:51;;;;;;;0.00;0.00;;;;;;;25.98;64.82;102200.75;5035634;28;20030;-83
2023/07/10 10:06:27;;;;;;;0.00;0.00;;;;;;;26.26;63.69;102198.25;5035951;28;20034;-84
2023/07/10 10:08:54;;;;;;;0.00;0.00;;;;;;;26.65;62.54;102193.25;5035256;28;20045;-83
2023/07/10 10:11:45;;;;;;;0.00;0.00;;;;;;;26.91;60.64;102203.56;5047259;28;20047;-85
2023/07/10 10:14:16;;;;;;;0.00;0.00;;;;;;;26.33;60.12;102194.00;5036574;28;20049;-85
2023/07/10 10:16:44;;;;;;;0.00;0.00;;;;;;;27.27;59.43;102191.91;5035817;28;20512;-85
2023/07/10 10:19:25;;;;;;;0.00;0.00;;;;;;;27.32;60.04;102186.31;5034476;28;20491;-83
2023/07/10 10:21:51;;;;;;;0.00;0.00;;;;;;;27.45;58.12;102194.63;5016303;28;20037;-84
2023/07/10 10:24:16;;;;;;;0.00;0.00;;;;;;;26.89;57.61;102199.47;5035260;28;20045;-84
2023/07/10 10:26:57;;;;;;;0.00;0.00;;;;;;;27.01;59.27;102193.50;5035519;28;20037;-85
2023/07/10 10:29:49;;;;;;;0.00;0.00;;;;;;;26.88;57.02;102186.81;5031844;28;20085;-79
2023/07/10 10:32:35;;;;;;;0.00;0.00;;;;;;;26.62;56.76;102202.09;5029281;28;20041;-80
2023/07/10 10:35:30;;;;;;;0.00;0.00;;;;;;;26.37;57.08;102194.22;5012518;28;20041;-79
2023/07/10 10:38:10;;;;;;;0.00;0.00;;;;;;;27.03;56.98;102182.97;5025741;28;20474;-81
2023/07/10 10:40:55;;;;;;;0.00;0.00;;;;;;;26.99;59.92;102176.44;5024357;28;20542;-80
2023/07/10 10:43:38;;;;;;;0.00;0.00;;;;;;;25.74;58.10;102188.13;5015317;28;20049;-80
2023/07/10 10:46:10;;;;;;;0.00;0.00;;;;;;;25.91;57.70;102188.47;5018494;28;20403;-80
2023/07/10 10:48:45;;;;;;;0.00;0.00;;;;;;;26.72;56.32;102189.00;5056764;28;20040;-80
2023/07/10 10:51:39;;;;;;;0.00;0.00;;;;;;;26.92;56.04;102185.91;5056835;28;20406;-81
2023/07/10 10:54:13;;;;;;;0.00;0.00;;;;;;;26.58;56.80;102192.78;5051970;28;20033;-80
2023/07/10 10:56:45;;;;;;;0.00;0.00;;;;;;;27.20;55.06;102186.81;5056215;28;20514;-81
2023/07/10 10:59:10;;;;;;;0.00;0.00;;;;;;;27.42;55.46;102192.47;5055839;28;20016;-80
2023/07/10 11:01:47;;;;;;;0.00;0.00;;;;;;;27.39;53.91;102184.81;5056031;28;21108;-79
2023/07/10 11:04:19;;;;;;;0.00;0.00;;;;;;;26.87;53.18;102194.25;5054224;28;20056;-79
2023/07/10 11:06:49;;;;;;;0.00;0.00;;;;;;;26.65;52.59;102194.03;5034925;28;20551;-80
2023/07/10 11:09:20;;;;;;;;;;;;;;;27.29;51.75;102192.41;5055710;28;20036;-81
2023/07/10 11:11:46;;;;;;;0.00;0.00;;;;;;;26.48;52.49;102191.00;5052909;28;19923;-81
2023/07/10 11:14:12;;;;;;;0.00;0.00;;;;;;;26.97;52.40;102187.75;5054796;28;20043;-79
2023/07/10 11:16:39;;;;;;;0.00;0.00;;;;;;;26.91;51.52;102208.28;5036821;28;20029;-80
2023/07/10 11:19:05;;;;;;;0.00;0.00;;;;;;;27.66;50.44;102187.59;5057313;28;20114;-86
2023/07/10 11:24:45;;;;;;;;;;;;;;;;;;;;;
2023/07/10 11:27:19;;;;;;;0.00;0.00;;;;;;;27.64;50.87;102200.06;5056826;28;20025;-86
2023/07/10 11:29:54;;;;;;;0.00;0.00;;;;;;;27.35;50.67;102197.59;5058045;28;20036;-84
2023/07/10 11:32:23;;;;;;;0.00;0.00;;;;;;;27.70;50.44;102191.38;5039022;28;20037;-85
2023/07/10 11:34:53;;;;;;;0.00;0.00;;;;;;;28.28;50.53;102199.84;5059787;28;20028;-86
2023/07/10 11:37:40;;;;;;;0.00;0.00;;;;;;;27.67;51.63;102207.75;5058360;28;20051;-85
2023/07/10 11:40:24;;;;;;;0.00;0.00;;;;;;;28.11;49.25;102199.63;5041205;28;20024;-84
2023/07/10 11:42:50;;;;;;;0.00;0.00;;;;;;;28.68;48.74;102198.06;5057831;28;20033;-84
2023/07/10 11:45:15;;;;;;;0.00;0.00;;;;;;;27.60;51.47;102202.63;5037710;28;20033;-84
2023/07/10 11:47:46;;;;;;;0.00;0.00;;;;;;;27.67;52.27;102205.81;5038737;28;20049;-85
2023/07/10 11:50:27;;;;;;;0.00;0.00;;;;;;;28.20;50.09;102210.81;5039519;28;20029;-84
2023/07/10 11:53:19;;;;;;;0.00;0.00;;;;;;;28.13;50.24;102211.22;5037126;28;20050;-84